Terminal Aerodrome Forecast
Issued by NWS

Home | Current Version | Previous Version | Text Only | Print | Product List | Glossary On
Versions: 1 2 3 4 5 6 7 8 9 10 11 12 13 14 15 16 17 18 19 20 21 22 23 24 25 26 27 28 29 30 31 32
000
FTUS45 KBOU 122320
TAFAPA
TAF
KAPA 122320Z 1300/1324 VRB03KT P6SM SCT250
     FM130100 17006KT P6SM FEW250
     FM130300 19008KT P6SM SCT220
     FM131700 34006KT P6SM SCT200
     FM131900 04012KT P6SM SCT080 BKN120=

USA.gov is the U.S. government's official web portal to all federal, state and local government web resources and services.